SWA2699 KBWI-KPWM
Flight info
| Callsign | SWA2699 |
|---|---|
| Flight time | 1h 6m |
| Altitude | 35000 |
| Route | DUKPN1 BROSS Q419 RBV Q22 LLUND BDR SCOGS3 |
| Aircraft | B737/M-SADE2E3GIJ4RWZ/LB1D1 |
Departure
| Time | 2026-04-29 03:51 |
|---|---|
| Airport | Baltimore/Washington International Thurgood Marshall Airport (KBWI) |
Arrival
| Time | 2026-04-29 04:57 |
|---|---|
| Airport | Portland International Jetport (KPWM) |
| Time | Latitude | Longitude | Altitude | Speed | Heading |
|---|---|---|---|---|---|
| 2026-04-29 03:21 | 39.17598 | -76.66904 | 155 ft | 0 kts | 351° |
| 2026-04-29 03:41 | 39.17578 | -76.66900 | 155 ft | 4 kts | 353° |
| 2026-04-29 03:41 | 39.17554 | -76.66895 | 155 ft | 4 kts | 337° |
| 2026-04-29 03:41 | 39.17537 | -76.66876 | 155 ft | 4 kts | 289° |
| 2026-04-29 03:42 | 39.17532 | -76.66849 | 155 ft | 1 kts | 274° |
| 2026-04-29 03:45 | 39.17532 | -76.66851 | 155 ft | 1 kts | 274° |
| 2026-04-29 03:45 | 39.17523 | -76.66864 | 155 ft | 3 kts | 186° |
| 2026-04-29 03:45 | 39.17488 | -76.66860 | 154 ft | 7 kts | 195° |
| 2026-04-29 03:46 | 39.17469 | -76.66921 | 153 ft | 9 kts | 273° |
| 2026-04-29 03:46 | 39.17485 | -76.67005 | 152 ft | 10 kts | 292° |
| 2026-04-29 03:46 | 39.17529 | -76.67087 | 152 ft | 13 kts | 315° |
| 2026-04-29 03:46 | 39.17612 | -76.67168 | 150 ft | 17 kts | 324° |
| 2026-04-29 03:47 | 39.17706 | -76.67256 | 149 ft | 16 kts | 324° |
| 2026-04-29 03:47 | 39.17799 | -76.67342 | 149 ft | 17 kts | 324° |
| 2026-04-29 03:47 | 39.17891 | -76.67427 | 148 ft | 16 kts | 324° |
| 2026-04-29 03:47 | 39.17991 | -76.67520 | 147 ft | 19 kts | 324° |
| 2026-04-29 03:48 | 39.18103 | -76.67624 | 146 ft | 20 kts | 324° |
| 2026-04-29 03:48 | 39.18216 | -76.67729 | 145 ft | 20 kts | 324° |
| 2026-04-29 03:48 | 39.18325 | -76.67830 | 145 ft | 19 kts | 324° |
| 2026-04-29 03:48 | 39.18430 | -76.67928 | 147 ft | 18 kts | 325° |
| 2026-04-29 03:49 | 39.18532 | -76.68021 | 147 ft | 16 kts | 324° |
| 2026-04-29 03:49 | 39.18566 | -76.68120 | 147 ft | 12 kts | 249° |
| 2026-04-29 03:49 | 39.18515 | -76.68179 | 144 ft | 7 kts | 162° |
| 2026-04-29 03:49 | 39.18501 | -76.68167 | 144 ft | 0 kts | 144° |
| 2026-04-29 03:51 | 39.18420 | -76.68093 | 144 ft | 47 kts | 144° |
| 2026-04-29 03:51 | 39.17919 | -76.67627 | 145 ft | 128 kts | 144° |
| 2026-04-29 03:51 | 39.17043 | -76.66818 | 419 ft | 169 kts | 144° |
| 2026-04-29 03:51 | 39.16103 | -76.65898 | 1401 ft | 169 kts | 134° |
| 2026-04-29 03:52 | 39.15508 | -76.64550 | 2097 ft | 185 kts | 112° |
| 2026-04-29 03:52 | 39.14997 | -76.62898 | 2479 ft | 211 kts | 114° |
| 2026-04-29 03:52 | 39.14367 | -76.61045 | 2765 ft | 242 kts | 115° |
| 2026-04-29 03:52 | 39.13646 | -76.58982 | 3378 ft | 257 kts | 116° |
| 2026-04-29 03:53 | 39.12909 | -76.56858 | 4266 ft | 263 kts | 115° |
| 2026-04-29 03:53 | 39.12142 | -76.54685 | 5134 ft | 269 kts | 115° |
| 2026-04-29 03:53 | 39.11347 | -76.52473 | 6189 ft | 274 kts | 116° |
| 2026-04-29 03:53 | 39.10538 | -76.50204 | 7259 ft | 284 kts | 115° |
| 2026-04-29 03:54 | 39.09980 | -76.48640 | 8033 ft | 287 kts | 115° |
| 2026-04-29 03:54 | 39.09267 | -76.46195 | 9016 ft | 295 kts | 96° |
| 2026-04-29 03:54 | 39.09458 | -76.43595 | 10043 ft | 295 kts | 69° |
| 2026-04-29 03:54 | 39.10158 | -76.41074 | 10905 ft | 308 kts | 66° |
| 2026-04-29 03:55 | 39.10935 | -76.38357 | 11197 ft | 340 kts | 66° |
| 2026-04-29 03:55 | 39.11765 | -76.35415 | 11816 ft | 356 kts | 66° |
| 2026-04-29 03:55 | 39.12596 | -76.32383 | 12759 ft | 361 kts | 66° |
| 2026-04-29 03:55 | 39.13426 | -76.29308 | 13697 ft | 366 kts | 67° |
| 2026-04-29 03:56 | 39.14269 | -76.26174 | 14545 ft | 374 kts | 67° |
| 2026-04-29 03:56 | 39.15120 | -76.22977 | 15377 ft | 382 kts | 69° |
| 2026-04-29 03:56 | 39.15700 | -76.19587 | 16187 ft | 393 kts | 79° |
| 2026-04-29 03:56 | 39.16036 | -76.16068 | 17005 ft | 400 kts | 81° |
| 2026-04-29 03:57 | 39.16369 | -76.12479 | 17764 ft | 406 kts | 80° |
| 2026-04-29 03:57 | 39.16749 | -76.08849 | 18515 ft | 413 kts | 79° |
| 2026-04-29 03:57 | 39.17163 | -76.05161 | 19262 ft | 419 kts | 79° |
| 2026-04-29 03:57 | 39.17591 | -76.01428 | 20013 ft | 424 kts | 79° |
| 2026-04-29 03:58 | 39.18024 | -75.97650 | 20763 ft | 428 kts | 79° |
| 2026-04-29 03:58 | 39.18458 | -75.93828 | 21456 ft | 434 kts | 79° |
| 2026-04-29 03:58 | 39.19103 | -75.90026 | 22083 ft | 435 kts | 65° |
| 2026-04-29 03:58 | 39.20571 | -75.86646 | 22746 ft | 432 kts | 47° |
| 2026-04-29 03:59 | 39.22680 | -75.83927 | 23425 ft | 428 kts | 36° |
| 2026-04-29 03:59 | 39.24970 | -75.81443 | 24038 ft | 432 kts | 35° |
| 2026-04-29 03:59 | 39.27312 | -75.78969 | 24579 ft | 438 kts | 34° |
| 2026-04-29 03:59 | 39.29678 | -75.76458 | 25170 ft | 442 kts | 35° |
| 2026-04-29 04:00 | 39.32047 | -75.73908 | 25778 ft | 445 kts | 35° |
| 2026-04-29 04:00 | 39.34416 | -75.71326 | 26372 ft | 448 kts | 35° |
| 2026-04-29 04:00 | 39.36795 | -75.68710 | 26926 ft | 451 kts | 35° |
| 2026-04-29 04:00 | 39.39191 | -75.66065 | 27447 ft | 454 kts | 35° |
| 2026-04-29 04:01 | 39.41592 | -75.63394 | 27949 ft | 457 kts | 34° |
| 2026-04-29 04:01 | 39.44030 | -75.60736 | 28442 ft | 459 kts | 34° |
| 2026-04-29 04:01 | 39.46480 | -75.58062 | 28892 ft | 465 kts | 36° |
| 2026-04-29 04:01 | 39.48940 | -75.55351 | 29422 ft | 465 kts | 34° |
| 2026-04-29 04:02 | 39.51424 | -75.52652 | 29927 ft | 467 kts | 34° |
| 2026-04-29 04:02 | 39.53912 | -75.49938 | 30348 ft | 467 kts | 34° |
| 2026-04-29 04:02 | 39.56386 | -75.47168 | 30570 ft | 474 kts | 34° |
| 2026-04-29 04:02 | 39.58896 | -75.44370 | 30905 ft | 477 kts | 34° |
| 2026-04-29 04:03 | 39.61423 | -75.41573 | 31301 ft | 478 kts | 34° |
| 2026-04-29 04:03 | 39.63956 | -75.38776 | 31801 ft | 477 kts | 34° |
| 2026-04-29 04:03 | 39.66479 | -75.35988 | 32297 ft | 475 kts | 34° |
| 2026-04-29 04:03 | 39.68995 | -75.33207 | 32701 ft | 476 kts | 34° |
| 2026-04-29 04:04 | 39.71518 | -75.30417 | 33068 ft | 477 kts | 33° |
| 2026-04-29 04:04 | 39.74046 | -75.27615 | 33423 ft | 478 kts | 34° |
| 2026-04-29 04:04 | 39.76569 | -75.24815 | 33796 ft | 478 kts | 34° |
| 2026-04-29 04:04 | 39.79091 | -75.21978 | 34138 ft | 480 kts | 36° |
| 2026-04-29 04:05 | 39.81433 | -75.18837 | 34454 ft | 487 kts | 42° |
| 2026-04-29 04:05 | 39.83653 | -75.15503 | 34828 ft | 488 kts | 44° |
| 2026-04-29 04:05 | 39.85835 | -75.12124 | 35124 ft | 489 kts | 44° |
| 2026-04-29 04:05 | 39.88044 | -75.08718 | 35131 ft | 495 kts | 44° |
| 2026-04-29 04:06 | 39.92548 | -75.01914 | 35143 ft | 495 kts | 43° |
| 2026-04-29 04:06 | 39.97019 | -74.95183 | 35146 ft | 491 kts | 46° |
| 2026-04-29 04:07 | 40.00952 | -74.87855 | 35154 ft | 495 kts | 53° |
| 2026-04-29 04:07 | 40.04668 | -74.80288 | 35152 ft | 495 kts | 54° |
| 2026-04-29 04:08 | 40.08428 | -74.72764 | 35147 ft | 495 kts | 53° |
| 2026-04-29 04:08 | 40.12232 | -74.65264 | 35136 ft | 495 kts | 53° |
| 2026-04-29 04:09 | 40.16032 | -74.57768 | 35146 ft | 495 kts | 54° |
| 2026-04-29 04:09 | 40.19928 | -74.50354 | 35136 ft | 493 kts | 47° |
| 2026-04-29 04:10 | 40.24859 | -74.44275 | 35158 ft | 486 kts | 35° |
| 2026-04-29 04:10 | 40.30165 | -74.38771 | 35145 ft | 487 kts | 34° |
| 2026-04-29 04:11 | 40.35492 | -74.33181 | 35149 ft | 487 kts | 35° |
| 2026-04-29 04:11 | 40.40749 | -74.27562 | 35153 ft | 488 kts | 35° |
| 2026-04-29 04:12 | 40.46003 | -74.21911 | 35156 ft | 488 kts | 36° |
| 2026-04-29 04:12 | 40.51261 | -74.16248 | 35153 ft | 489 kts | 36° |
| 2026-04-29 04:13 | 40.56523 | -74.10578 | 35153 ft | 490 kts | 36° |
| 2026-04-29 04:13 | 40.61797 | -74.04890 | 35149 ft | 490 kts | 36° |
| 2026-04-29 04:14 | 40.67070 | -73.99195 | 35149 ft | 491 kts | 36° |
| 2026-04-29 04:14 | 40.72346 | -73.93478 | 35152 ft | 491 kts | 36° |
| 2026-04-29 04:15 | 40.77615 | -73.87758 | 35156 ft | 491 kts | 37° |
| 2026-04-29 04:15 | 40.82884 | -73.82026 | 35147 ft | 491 kts | 37° |
| 2026-04-29 04:16 | 40.87650 | -73.75566 | 35142 ft | 495 kts | 53° |
| 2026-04-29 04:16 | 40.91245 | -73.67810 | 35143 ft | 495 kts | 58° |
| 2026-04-29 04:17 | 40.94706 | -73.59954 | 35149 ft | 494 kts | 58° |
| 2026-04-29 04:17 | 40.98206 | -73.52130 | 35141 ft | 494 kts | 58° |
| 2026-04-29 04:18 | 41.01730 | -73.44341 | 35149 ft | 493 kts | 58° |
| 2026-04-29 04:18 | 41.05249 | -73.36563 | 35143 ft | 492 kts | 58° |
| 2026-04-29 04:19 | 41.08759 | -73.28771 | 35150 ft | 491 kts | 58° |
| 2026-04-29 04:19 | 41.12256 | -73.20985 | 35141 ft | 491 kts | 58° |
| 2026-04-29 04:20 | 41.15739 | -73.13212 | 35138 ft | 491 kts | 58° |
| 2026-04-29 04:20 | 41.19297 | -73.05487 | 35136 ft | 490 kts | 57° |
| 2026-04-29 04:21 | 41.22923 | -72.97836 | 35138 ft | 489 kts | 57° |
| 2026-04-29 04:21 | 41.26535 | -72.90197 | 35149 ft | 488 kts | 57° |
| 2026-04-29 04:22 | 41.30123 | -72.82541 | 35148 ft | 488 kts | 57° |
| 2026-04-29 04:22 | 41.33699 | -72.74873 | 35147 ft | 487 kts | 57° |
| 2026-04-29 04:23 | 41.37265 | -72.67204 | 35149 ft | 487 kts | 58° |
| 2026-04-29 04:23 | 41.40825 | -72.59531 | 35135 ft | 486 kts | 58° |
| 2026-04-29 04:24 | 41.44374 | -72.51865 | 35140 ft | 486 kts | 58° |
| 2026-04-29 04:24 | 41.47910 | -72.44206 | 35139 ft | 485 kts | 58° |
| 2026-04-29 04:25 | 41.51438 | -72.36551 | 35135 ft | 484 kts | 58° |
| 2026-04-29 04:25 | 41.54954 | -72.28900 | 35148 ft | 483 kts | 58° |
| 2026-04-29 04:26 | 41.58453 | -72.21260 | 35150 ft | 482 kts | 58° |
| 2026-04-29 04:26 | 41.61942 | -72.13627 | 35140 ft | 481 kts | 58° |
| 2026-04-29 04:27 | 41.65417 | -72.06010 | 35154 ft | 480 kts | 59° |
| 2026-04-29 04:27 | 41.68879 | -71.98394 | 35158 ft | 479 kts | 59° |
| 2026-04-29 04:28 | 41.72332 | -71.90781 | 35152 ft | 478 kts | 59° |
| 2026-04-29 04:28 | 41.75775 | -71.83172 | 35147 ft | 478 kts | 59° |
| 2026-04-29 04:29 | 41.79208 | -71.75563 | 35148 ft | 477 kts | 59° |
| 2026-04-29 04:29 | 41.82633 | -71.67955 | 35151 ft | 476 kts | 59° |
| 2026-04-29 04:30 | 41.85932 | -71.60246 | 35146 ft | 477 kts | 63° |
| 2026-04-29 04:31 | 41.89704 | -71.49535 | 35149 ft | 477 kts | 65° |
| 2026-04-29 04:31 | 41.92519 | -71.41464 | 35147 ft | 478 kts | 65° |
| 2026-04-29 04:32 | 41.95387 | -71.33414 | 35148 ft | 478 kts | 64° |
| 2026-04-29 04:32 | 41.98267 | -71.25363 | 35137 ft | 478 kts | 64° |
| 2026-04-29 04:33 | 42.01146 | -71.17291 | 35138 ft | 479 kts | 64° |
| 2026-04-29 04:33 | 42.04018 | -71.09204 | 35135 ft | 479 kts | 65° |
| 2026-04-29 04:34 | 42.06884 | -71.01112 | 35147 ft | 479 kts | 65° |
| 2026-04-29 04:34 | 42.10590 | -70.93787 | 35169 ft | 475 kts | 39° |
| 2026-04-29 04:34 | 42.13332 | -70.91338 | 35136 ft | 473 kts | 23° |
| 2026-04-29 04:35 | 42.16387 | -70.89753 | 35162 ft | 470 kts | 17° |
| 2026-04-29 04:35 | 42.22606 | -70.87007 | 35149 ft | 470 kts | 16° |
| 2026-04-29 04:36 | 42.28817 | -70.84224 | 35149 ft | 470 kts | 17° |
| 2026-04-29 04:36 | 42.35011 | -70.81336 | 34750 ft | 476 kts | 17° |
| 2026-04-29 04:36 | 42.38104 | -70.79882 | 33987 ft | 477 kts | 18° |
| 2026-04-29 04:37 | 42.41278 | -70.78389 | 33085 ft | 476 kts | 18° |
| 2026-04-29 04:37 | 42.44368 | -70.76932 | 32165 ft | 477 kts | 18° |
| 2026-04-29 04:37 | 42.47473 | -70.75323 | 31169 ft | 479 kts | 21° |
| 2026-04-29 04:37 | 42.50562 | -70.73599 | 30113 ft | 481 kts | 21° |
| 2026-04-29 04:38 | 42.53650 | -70.71844 | 29019 ft | 482 kts | 21° |
| 2026-04-29 04:38 | 42.56730 | -70.70104 | 28220 ft | 476 kts | 21° |
| 2026-04-29 04:38 | 42.59772 | -70.68407 | 27386 ft | 470 kts | 21° |
| 2026-04-29 04:38 | 42.62783 | -70.66746 | 26565 ft | 464 kts | 20° |
| 2026-04-29 04:39 | 42.65759 | -70.65108 | 25755 ft | 459 kts | 20° |
| 2026-04-29 04:39 | 42.68695 | -70.63480 | 24956 ft | 453 kts | 21° |
| 2026-04-29 04:39 | 42.71544 | -70.61763 | 24193 ft | 446 kts | 23° |
| 2026-04-29 04:39 | 42.74334 | -70.59989 | 23397 ft | 441 kts | 23° |
| 2026-04-29 04:40 | 42.77093 | -70.58209 | 22603 ft | 435 kts | 24° |
| 2026-04-29 04:40 | 42.79819 | -70.56455 | 21810 ft | 430 kts | 24° |
| 2026-04-29 04:40 | 42.82509 | -70.54737 | 21021 ft | 424 kts | 24° |
| 2026-04-29 04:40 | 42.85171 | -70.53048 | 20236 ft | 420 kts | 24° |
| 2026-04-29 04:41 | 42.87804 | -70.51385 | 19452 ft | 415 kts | 24° |
| 2026-04-29 04:41 | 42.90404 | -70.49743 | 18675 ft | 410 kts | 24° |
| 2026-04-29 04:41 | 42.92977 | -70.48118 | 17897 ft | 405 kts | 24° |
| 2026-04-29 04:41 | 42.95521 | -70.46510 | 17130 ft | 401 kts | 24° |
| 2026-04-29 04:42 | 42.98035 | -70.44918 | 16364 ft | 396 kts | 24° |
| 2026-04-29 04:42 | 43.00531 | -70.43336 | 15456 ft | 396 kts | 24° |
| 2026-04-29 04:42 | 43.02995 | -70.41714 | 14683 ft | 391 kts | 28° |
| 2026-04-29 04:42 | 43.05308 | -70.39803 | 13944 ft | 386 kts | 33° |
| 2026-04-29 04:43 | 43.07530 | -70.37788 | 13209 ft | 381 kts | 34° |
| 2026-04-29 04:43 | 43.09721 | -70.35790 | 12471 ft | 376 kts | 33° |
| 2026-04-29 04:43 | 43.11896 | -70.33855 | 11741 ft | 371 kts | 33° |
| 2026-04-29 04:43 | 43.14060 | -70.31964 | 11111 ft | 365 kts | 33° |
| 2026-04-29 04:44 | 43.16142 | -70.30157 | 10969 ft | 345 kts | 33° |
| 2026-04-29 04:44 | 43.18123 | -70.28428 | 10656 ft | 332 kts | 33° |
| 2026-04-29 04:44 | 43.20033 | -70.26751 | 10373 ft | 320 kts | 33° |
| 2026-04-29 04:44 | 43.21883 | -70.25147 | 10093 ft | 310 kts | 30° |
| 2026-04-29 04:45 | 43.23896 | -70.24294 | 9930 ft | 298 kts | 4° |
| 2026-04-29 04:45 | 43.25888 | -70.24619 | 9842 ft | 285 kts | 344° |
| 2026-04-29 04:45 | 43.27666 | -70.25827 | 9419 ft | 285 kts | 324° |
| 2026-04-29 04:45 | 43.29169 | -70.27565 | 9118 ft | 280 kts | 317° |
| 2026-04-29 04:46 | 43.30577 | -70.29389 | 8866 ft | 277 kts | 317° |
| 2026-04-29 04:46 | 43.31983 | -70.31205 | 8625 ft | 278 kts | 317° |
| 2026-04-29 04:46 | 43.33399 | -70.33004 | 8379 ft | 277 kts | 318° |
| 2026-04-29 04:46 | 43.34821 | -70.34798 | 8133 ft | 277 kts | 318° |
| 2026-04-29 04:47 | 43.36214 | -70.36634 | 7889 ft | 278 kts | 315° |
| 2026-04-29 04:47 | 43.37568 | -70.38530 | 7648 ft | 278 kts | 314° |
| 2026-04-29 04:47 | 43.38909 | -70.40428 | 7401 ft | 277 kts | 314° |
| 2026-04-29 04:47 | 43.40248 | -70.42325 | 7152 ft | 276 kts | 314° |
| 2026-04-29 04:48 | 43.41581 | -70.44210 | 6915 ft | 274 kts | 314° |
| 2026-04-29 04:48 | 43.42912 | -70.46088 | 6673 ft | 274 kts | 314° |
| 2026-04-29 04:48 | 43.44239 | -70.47960 | 6433 ft | 273 kts | 314° |
| 2026-04-29 04:48 | 43.45566 | -70.49828 | 6194 ft | 272 kts | 315° |
| 2026-04-29 04:49 | 43.46886 | -70.51685 | 5949 ft | 271 kts | 315° |
| 2026-04-29 04:49 | 43.48204 | -70.53542 | 5716 ft | 271 kts | 314° |
| 2026-04-29 04:49 | 43.49517 | -70.55401 | 5483 ft | 270 kts | 315° |
| 2026-04-29 04:49 | 43.50819 | -70.57240 | 5236 ft | 265 kts | 315° |
| 2026-04-29 04:50 | 43.52095 | -70.59040 | 5004 ft | 260 kts | 315° |
| 2026-04-29 04:50 | 43.53339 | -70.60797 | 4777 ft | 253 kts | 315° |
| 2026-04-29 04:50 | 43.54554 | -70.62515 | 4560 ft | 248 kts | 316° |
| 2026-04-29 04:50 | 43.55961 | -70.63774 | 4320 ft | 239 kts | 347° |
| 2026-04-29 04:51 | 43.57566 | -70.63924 | 4160 ft | 227 kts | 9° |
| 2026-04-29 04:51 | 43.59103 | -70.63552 | 3969 ft | 222 kts | 15° |
| 2026-04-29 04:51 | 43.60594 | -70.63113 | 3808 ft | 218 kts | 15° |
| 2026-04-29 04:51 | 43.62067 | -70.62667 | 3617 ft | 215 kts | 19° |
| 2026-04-29 04:52 | 43.63290 | -70.61648 | 3413 ft | 199 kts | 52° |
| 2026-04-29 04:52 | 43.63988 | -70.60106 | 3240 ft | 183 kts | 67° |
| 2026-04-29 04:52 | 43.64492 | -70.58548 | 3091 ft | 176 kts | 69° |
| 2026-04-29 04:52 | 43.64982 | -70.57004 | 3028 ft | 174 kts | 69° |
| 2026-04-29 04:53 | 43.65467 | -70.55483 | 3004 ft | 172 kts | 69° |
| 2026-04-29 04:53 | 43.65892 | -70.53935 | 2980 ft | 173 kts | 83° |
| 2026-04-29 04:53 | 43.65863 | -70.52277 | 2845 ft | 175 kts | 94° |
| 2026-04-29 04:53 | 43.65796 | -70.50604 | 2625 ft | 175 kts | 93° |
| 2026-04-29 04:54 | 43.65698 | -70.48936 | 2395 ft | 174 kts | 94° |
| 2026-04-29 04:54 | 43.65586 | -70.47265 | 2164 ft | 176 kts | 94° |
| 2026-04-29 04:54 | 43.65473 | -70.45621 | 1925 ft | 166 kts | 94° |
| 2026-04-29 04:54 | 43.65368 | -70.44107 | 1742 ft | 149 kts | 94° |
| 2026-04-29 04:55 | 43.65274 | -70.42759 | 1518 ft | 134 kts | 93° |
| 2026-04-29 04:55 | 43.65189 | -70.41493 | 1364 ft | 133 kts | 94° |
| 2026-04-29 04:55 | 43.65103 | -70.40220 | 1176 ft | 135 kts | 94° |
| 2026-04-29 04:55 | 43.65018 | -70.38926 | 1003 ft | 135 kts | 94° |
| 2026-04-29 04:56 | 43.64927 | -70.37652 | 823 ft | 131 kts | 94° |
| 2026-04-29 04:56 | 43.64844 | -70.36399 | 638 ft | 131 kts | 94° |
| 2026-04-29 04:56 | 43.64759 | -70.35154 | 466 ft | 130 kts | 95° |
| 2026-04-29 04:56 | 43.64675 | -70.33907 | 309 ft | 130 kts | 94° |
| 2026-04-29 04:57 | 43.64593 | -70.32672 | 142 ft | 129 kts | 95° |
| 2026-04-29 04:57 | 43.64513 | -70.31499 | 67 ft | 107 kts | 95° |
| 2026-04-29 04:57 | 43.64457 | -70.30679 | 62 ft | 64 kts | 95° |
| 2026-04-29 04:57 | 43.64438 | -70.30345 | 56 ft | 12 kts | 73° |
| 2026-04-29 04:58 | 43.64511 | -70.30340 | 55 ft | 12 kts | 339° |
| 2026-04-29 04:58 | 43.64558 | -70.30416 | 55 ft | 12 kts | 259° |
| 2026-04-29 04:58 | 43.64557 | -70.30526 | 59 ft | 11 kts | 275° |
| 2026-04-29 04:58 | 43.64564 | -70.30634 | 58 ft | 11 kts | 275° |
| 2026-04-29 04:59 | 43.64572 | -70.30749 | 61 ft | 13 kts | 275° |
| 2026-04-29 04:59 | 43.64582 | -70.30884 | 63 ft | 12 kts | 279° |
| 2026-04-29 04:59 | 43.64625 | -70.30952 | 61 ft | 9 kts | 346° |
| 2026-04-29 04:59 | 43.64662 | -70.30949 | 59 ft | 3 kts | 5° |
| 2026-04-29 05:00 | 43.64669 | -70.30948 | 65 ft | 1 kts | 5° |
| 2026-04-29 05:00 | 43.64676 | -70.30947 | 61 ft | 0 kts | 5° |